sensor_id;sensor_type;location;lat;lon;timestamp;temperature;humidity
84272;SHT31;74614;50.032;19.566;2024-02-26T00:01:43;15.52;34.90
84272;SHT31;74614;50.032;19.566;2024-02-26T00:04:27;15.63;35.17
84272;SHT31;74614;50.032;19.566;2024-02-26T00:06:28;15.60;35.56
84272;SHT31;74614;50.032;19.566;2024-02-26T00:08:26;15.60;35.39
84272;SHT31;74614;50.032;19.566;2024-02-26T00:10:29;15.67;35.62
84272;SHT31;74614;50.032;19.566;2024-02-26T00:13:27;15.70;33.91
84272;SHT31;74614;50.032;19.566;2024-02-26T00:14:31;15.81;33.91
84272;SHT31;74614;50.032;19.566;2024-02-26T00:16:26;15.66;35.18
84272;SHT31;74614;50.032;19.566;2024-02-26T00:18:25;15.81;34.93
84272;SHT31;74614;50.032;19.566;2024-02-26T00:20:28;15.83;34.01
84272;SHT31;74614;50.032;19.566;2024-02-26T00:22:27;15.88;34.53
84272;SHT31;74614;50.032;19.566;2024-02-26T00:24:26;15.87;33.70
84272;SHT31;74614;50.032;19.566;2024-02-26T00:26:27;15.97;33.82
84272;SHT31;74614;50.032;19.566;2024-02-26T00:28:28;16.04;33.62
84272;SHT31;74614;50.032;19.566;2024-02-26T00:30:31;15.97;33.45
84272;SHT31;74614;50.032;19.566;2024-02-26T00:32:27;15.88;33.82
84272;SHT31;74614;50.032;19.566;2024-02-26T00:34:29;15.71;34.37
84272;SHT31;74614;50.032;19.566;2024-02-26T00:36:26;15.62;34.26
84272;SHT31;74614;50.032;19.566;2024-02-26T00:38:26;15.43;33.62
84272;SHT31;74614;50.032;19.566;2024-02-26T00:40:29;15.40;34.62
84272;SHT31;74614;50.032;19.566;2024-02-26T00:42:28;15.21;34.99
84272;SHT31;74614;50.032;19.566;2024-02-26T00:44:26;15.15;35.54
84272;SHT31;74614;50.032;19.566;2024-02-26T00:46:26;15.06;35.25
84272;SHT31;74614;50.032;19.566;2024-02-26T00:48:28;15.05;34.95
84272;SHT31;74614;50.032;19.566;2024-02-26T00:50:26;14.98;36.44
84272;SHT31;74614;50.032;19.566;2024-02-26T00:52:39;15.03;35.32
84272;SHT31;74614;50.032;19.566;2024-02-26T00:55:31;15.22;34.53
84272;SHT31;74614;50.032;19.566;2024-02-26T00:57:40;15.08;35.78
84272;SHT31;74614;50.032;19.566;2024-02-26T01:00:26;15.05;34.76
84272;SHT31;74614;50.032;19.566;2024-02-26T01:02:29;15.01;34.42
84272;SHT31;74614;50.032;19.566;2024-02-26T01:04:26;15.03;35.19
84272;SHT31;74614;50.032;19.566;2024-02-26T01:06:28;14.96;35.57
84272;SHT31;74614;50.032;19.566;2024-02-26T01:08:27;14.99;34.93
84272;SHT31;74614;50.032;19.566;2024-02-26T01:10:30;14.98;35.37
84272;SHT31;74614;50.032;19.566;2024-02-26T01:12:26;14.98;36.04
84272;SHT31;74614;50.032;19.566;2024-02-26T01:14:27;14.89;36.89
84272;SHT31;74614;50.032;19.566;2024-02-26T01:16:27;14.74;37.51
84272;SHT31;74614;50.032;19.566;2024-02-26T01:18:27;14.74;36.72
84272;SHT31;74614;50.032;19.566;2024-02-26T01:20:26;14.62;37.60
84272;SHT31;74614;50.032;19.566;2024-02-26T01:22:26;14.85;37.57
84272;SHT31;74614;50.032;19.566;2024-02-26T01:24:31;14.86;35.86
84272;SHT31;74614;50.032;19.566;2024-02-26T01:26:26;14.91;35.56
84272;SHT31;74614;50.032;19.566;2024-02-26T01:28:29;14.93;35.93
84272;SHT31;74614;50.032;19.566;2024-02-26T01:30:27;14.93;36.36
84272;SHT31;74614;50.032;19.566;2024-02-26T01:32:26;14.85;35.73
84272;SHT31;74614;50.032;19.566;2024-02-26T01:34:29;14.88;36.03
84272;SHT31;74614;50.032;19.566;2024-02-26T01:36:27;14.99;36.38
84272;SHT31;74614;50.032;19.566;2024-02-26T01:38:26;14.91;36.75
84272;SHT31;74614;50.032;19.566;2024-02-26T01:40:28;14.95;36.66
84272;SHT31;74614;50.032;19.566;2024-02-26T01:42:29;15.13;36.05
84272;SHT31;74614;50.032;19.566;2024-02-26T01:44:26;15.13;36.29
84272;SHT31;74614;50.032;19.566;2024-02-26T01:46:31;15.33;36.48
84272;SHT31;74614;50.032;19.566;2024-02-26T01:48:26;15.39;35.71
84272;SHT31;74614;50.032;19.566;2024-02-26T01:50:27;15.53;35.28
84272;SHT31;74614;50.032;19.566;2024-02-26T01:52:26;15.64;34.61
84272;SHT31;74614;50.032;19.566;2024-02-26T01:54:28;15.73;34.46
84272;SHT31;74614;50.032;19.566;2024-02-26T01:56:29;15.88;33.77
84272;SHT31;74614;50.032;19.566;2024-02-26T01:58:27;15.86;33.52
84272;SHT31;74614;50.032;19.566;2024-02-26T02:00:28;15.62;34.02
84272;SHT31;74614;50.032;19.566;2024-02-26T02:02:28;15.64;34.21
84272;SHT31;74614;50.032;19.566;2024-02-26T02:04:26;15.59;34.65
84272;SHT31;74614;50.032;19.566;2024-02-26T02:06:32;15.63;34.57
84272;SHT31;74614;50.032;19.566;2024-02-26T02:08:28;15.71;33.96
84272;SHT31;74614;50.032;19.566;2024-02-26T02:10:32;15.66;33.87
84272;SHT31;74614;50.032;19.566;2024-02-26T02:12:31;15.70;33.53
84272;SHT31;74614;50.032;19.566;2024-02-26T02:14:27;15.53;33.92
84272;SHT31;74614;50.032;19.566;2024-02-26T02:16:27;15.50;34.50
84272;SHT31;74614;50.032;19.566;2024-02-26T02:18:31;15.43;34.72
84272;SHT31;74614;50.032;19.566;2024-02-26T02:20:32;15.54;34.53
84272;SHT31;74614;50.032;19.566;2024-02-26T02:22:27;15.56;34.33
84272;SHT31;74614;50.032;19.566;2024-02-26T02:24:29;15.59;33.51
84272;SHT31;74614;50.032;19.566;2024-02-26T02:26:31;15.56;33.13
84272;SHT31;74614;50.032;19.566;2024-02-26T02:28:34;15.23;34.32
84272;SHT31;74614;50.032;19.566;2024-02-26T02:30:30;14.92;35.57
84272;SHT31;74614;50.032;19.566;2024-02-26T02:32:28;14.74;36.36
84272;SHT31;74614;50.032;19.566;2024-02-26T02:34:26;14.65;36.55
84272;SHT31;74614;50.032;19.566;2024-02-26T02:36:27;14.56;35.18
84272;SHT31;74614;50.032;19.566;2024-02-26T02:38:26;14.62;36.33
84272;SHT31;74614;50.032;19.566;2024-02-26T02:40:26;14.44;36.15
84272;SHT31;74614;50.032;19.566;2024-02-26T02:42:26;14.41;36.03
84272;SHT31;74614;50.032;19.566;2024-02-26T02:44:27;14.47;36.40
84272;SHT31;74614;50.032;19.566;2024-02-26T02:46:32;14.51;36.87
84272;SHT31;74614;50.032;19.566;2024-02-26T02:48:26;14.51;36.52
84272;SHT31;74614;50.032;19.566;2024-02-26T02:50:31;14.60;36.49
84272;SHT31;74614;50.032;19.566;2024-02-26T02:52:31;14.78;35.65
84272;SHT31;74614;50.032;19.566;2024-02-26T02:54:27;14.84;35.21
84272;SHT31;74614;50.032;19.566;2024-02-26T02:56:33;14.99;35.01
84272;SHT31;74614;50.032;19.566;2024-02-26T02:58:26;15.13;35.05
84272;SHT31;74614;50.032;19.566;2024-02-26T03:00:29;15.13;34.22
84272;SHT31;74614;50.032;19.566;2024-02-26T03:02:30;15.08;33.31
84272;SHT31;74614;50.032;19.566;2024-02-26T03:04:27;15.08;34.09
84272;SHT31;74614;50.032;19.566;2024-02-26T03:06:28;14.98;33.80
84272;SHT31;74614;50.032;19.566;2024-02-26T03:08:32;14.86;34.46
84272;SHT31;74614;50.032;19.566;2024-02-26T03:10:30;14.68;34.78
84272;SHT31;74614;50.032;19.566;2024-02-26T03:12:43;14.64;34.55
84272;SHT31;74614;50.032;19.566;2024-02-26T03:15:26;14.51;35.86
84272;SHT31;74614;50.032;19.566;2024-02-26T03:17:42;14.70;35.38
84272;SHT31;74614;50.032;19.566;2024-02-26T03:20:29;14.86;35.10
84272;SHT31;74614;50.032;19.566;2024-02-26T03:22:27;15.03;34.51
84272;SHT31;74614;50.032;19.566;2024-02-26T03:24:29;15.13;33.68
84272;SHT31;74614;50.032;19.566;2024-02-26T03:26:29;15.12;33.27
84272;SHT31;74614;50.032;19.566;2024-02-26T03:28:35;15.03;33.14
84272;SHT31;74614;50.032;19.566;2024-02-26T03:30:26;14.88;34.06
84272;SHT31;74614;50.032;19.566;2024-02-26T03:32:26;14.54;34.90
84272;SHT31;74614;50.032;19.566;2024-02-26T03:34:28;14.30;35.59
84272;SHT31;74614;50.032;19.566;2024-02-26T03:36:30;14.09;37.17
84272;SHT31;74614;50.032;19.566;2024-02-26T03:38:25;13.95;37.71
84272;SHT31;74614;50.032;19.566;2024-02-26T03:40:29;13.87;37.60
84272;SHT31;74614;50.032;19.566;2024-02-26T03:42:30;13.90;36.38
84272;SHT31;74614;50.032;19.566;2024-02-26T03:44:27;13.80;36.04
84272;SHT31;74614;50.032;19.566;2024-02-26T03:46:28;13.86;35.96
84272;SHT31;74614;50.032;19.566;2024-02-26T03:48:29;13.90;36.27
84272;SHT31;74614;50.032;19.566;2024-02-26T03:50:27;13.82;36.60
84272;SHT31;74614;50.032;19.566;2024-02-26T03:52:27;13.89;37.16
84272;SHT31;74614;50.032;19.566;2024-02-26T03:54:27;13.86;37.72
84272;SHT31;74614;50.032;19.566;2024-02-26T03:56:31;13.83;37.40
84272;SHT31;74614;50.032;19.566;2024-02-26T03:58:27;13.98;36.20
84272;SHT31;74614;50.032;19.566;2024-02-26T04:00:28;14.00;36.11
84272;SHT31;74614;50.032;19.566;2024-02-26T04:02:26;13.98;35.92
84272;SHT31;74614;50.032;19.566;2024-02-26T04:04:34;13.93;36.29
84272;SHT31;74614;50.032;19.566;2024-02-26T04:06:29;14.00;36.46
84272;SHT31;74614;50.032;19.566;2024-02-26T04:08:27;14.00;36.74
84272;SHT31;74614;50.032;19.566;2024-02-26T04:10:25;14.04;36.34
84272;SHT31;74614;50.032;19.566;2024-02-26T04:12:26;14.03;36.73
84272;SHT31;74614;50.032;19.566;2024-02-26T04:14:26;14.11;36.69
84272;SHT31;74614;50.032;19.566;2024-02-26T04:16:28;14.19;36.85
84272;SHT31;74614;50.032;19.566;2024-02-26T04:18:28;14.24;36.85
84272;SHT31;74614;50.032;19.566;2024-02-26T04:20:30;14.29;36.04
84272;SHT31;74614;50.032;19.566;2024-02-26T04:22:27;14.31;36.03
84272;SHT31;74614;50.032;19.566;2024-02-26T04:24:37;14.37;35.06
84272;SHT31;74614;50.032;19.566;2024-02-26T04:26:31;14.52;34.19
84272;SHT31;74614;50.032;19.566;2024-02-26T04:28:28;14.58;34.14
84272;SHT31;74614;50.032;19.566;2024-02-26T04:30:26;14.60;34.27
84272;SHT31;74614;50.032;19.566;2024-02-26T04:32:34;14.65;34.21
84272;SHT31;74614;50.032;19.566;2024-02-26T04:34:26;14.70;33.47
84272;SHT31;74614;50.032;19.566;2024-02-26T04:36:27;14.50;34.65
84272;SHT31;74614;50.032;19.566;2024-02-26T04:38:31;14.27;35.31
84272;SHT31;74614;50.032;19.566;2024-02-26T04:40:33;14.07;35.79
84272;SHT31;74614;50.032;19.566;2024-02-26T04:42:27;13.95;36.37
84272;SHT31;74614;50.032;19.566;2024-02-26T04:44:26;13.86;36.17
84272;SHT31;74614;50.032;19.566;2024-02-26T04:46:28;13.82;36.61
84272;SHT31;74614;50.032;19.566;2024-02-26T04:48:29;13.78;37.40
84272;SHT31;74614;50.032;19.566;2024-02-26T04:50:28;13.78;38.99
84272;SHT31;74614;50.032;19.566;2024-02-26T04:52:28;13.83;38.89
84272;SHT31;74614;50.032;19.566;2024-02-26T04:54:31;13.84;39.15
84272;SHT31;74614;50.032;19.566;2024-02-26T04:56:26;13.87;39.04
84272;SHT31;74614;50.032;19.566;2024-02-26T04:58:26;13.99;40.03
84272;SHT31;74614;50.032;19.566;2024-02-26T05:00:26;14.02;38.99
84272;SHT31;74614;50.032;19.566;2024-02-26T05:02:26;14.11;38.60
84272;SHT31;74614;50.032;19.566;2024-02-26T05:04:26;13.95;38.67
84272;SHT31;74614;50.032;19.566;2024-02-26T05:06:27;13.95;38.61
84272;SHT31;74614;50.032;19.566;2024-02-26T05:08:26;14.00;37.88
84272;SHT31;74614;50.032;19.566;2024-02-26T05:10:26;14.10;36.44
84272;SHT31;74614;50.032;19.566;2024-02-26T05:12:33;14.14;35.80
84272;SHT31;74614;50.032;19.566;2024-02-26T05:14:26;14.21;34.91
84272;SHT31;74614;50.032;19.566;2024-02-26T05:16:34;14.31;34.81
84272;SHT31;74614;50.032;19.566;2024-02-26T05:18:28;14.11;34.94
84272;SHT31;74614;50.032;19.566;2024-02-26T05:20:29;14.26;34.78
84272;SHT31;74614;50.032;19.566;2024-02-26T05:22:29;14.21;34.79
84272;SHT31;74614;50.032;19.566;2024-02-26T05:24:31;14.07;34.89
84272;SHT31;74614;50.032;19.566;2024-02-26T05:26:28;14.10;35.37
84272;SHT31;74614;50.032;19.566;2024-02-26T05:28:27;14.09;35.33
84272;SHT31;74614;50.032;19.566;2024-02-26T05:30:25;14.04;37.50
84272;SHT31;74614;50.032;19.566;2024-02-26T05:32:27;13.92;37.20
84272;SHT31;74614;50.032;19.566;2024-02-26T05:34:27;13.83;37.57
84272;SHT31;74614;50.032;19.566;2024-02-26T05:36:28;13.72;38.55
84272;SHT31;74614;50.032;19.566;2024-02-26T05:38:26;13.75;37.73
84272;SHT31;74614;50.032;19.566;2024-02-26T05:40:27;13.59;37.20
84272;SHT31;74614;50.032;19.566;2024-02-26T05:42:27;13.69;36.90
84272;SHT31;74614;50.032;19.566;2024-02-26T05:44:29;13.72;36.23
84272;SHT31;74614;50.032;19.566;2024-02-26T05:46:27;13.80;35.70
84272;SHT31;74614;50.032;19.566;2024-02-26T05:48:28;13.93;35.25
84272;SHT31;74614;50.032;19.566;2024-02-26T05:50:30;13.95;35.37
84272;SHT31;74614;50.032;19.566;2024-02-26T05:52:27;14.03;35.30
84272;SHT31;74614;50.032;19.566;2024-02-26T05:54:26;14.09;35.15
84272;SHT31;74614;50.032;19.566;2024-02-26T05:56:27;14.10;35.02
84272;SHT31;74614;50.032;19.566;2024-02-26T05:58:28;14.21;34.94
84272;SHT31;74614;50.032;19.566;2024-02-26T06:00:29;14.07;34.95
84272;SHT31;74614;50.032;19.566;2024-02-26T06:02:28;14.13;35.10
84272;SHT31;74614;50.032;19.566;2024-02-26T06:04:27;14.24;34.95
84272;SHT31;74614;50.032;19.566;2024-02-26T06:06:31;14.13;35.15
84272;SHT31;74614;50.032;19.566;2024-02-26T06:08:27;14.17;35.35
84272;SHT31;74614;50.032;19.566;2024-02-26T06:10:29;14.09;36.07
84272;SHT31;74614;50.032;19.566;2024-02-26T06:12:38;14.00;36.94
84272;SHT31;74614;50.032;19.566;2024-02-26T06:15:27;14.03;38.55
84272;SHT31;74614;50.032;19.566;2024-02-26T06:17:35;13.98;40.05
84272;SHT31;74614;50.032;19.566;2024-02-26T06:19:27;14.09;40.76
84272;SHT31;74614;50.032;19.566;2024-02-26T06:21:33;14.11;41.07
84272;SHT31;74614;50.032;19.566;2024-02-26T06:23:26;14.21;41.16
84272;SHT31;74614;50.032;19.566;2024-02-26T06:25:38;14.33;40.55
84272;SHT31;74614;50.032;19.566;2024-02-26T06:28:30;14.52;38.93
84272;SHT31;74614;50.032;19.566;2024-02-26T06:30:29;14.74;37.55
84272;SHT31;74614;50.032;19.566;2024-02-26T06:32:31;14.77;35.79
84272;SHT31;74614;50.032;19.566;2024-02-26T06:34:28;14.80;37.68
84272;SHT31;74614;50.032;19.566;2024-02-26T06:36:28;14.89;36.19
84272;SHT31;74614;50.032;19.566;2024-02-26T06:38:27;14.93;35.28
84272;SHT31;74614;50.032;19.566;2024-02-26T06:40:29;14.68;35.90
84272;SHT31;74614;50.032;19.566;2024-02-26T06:42:28;14.72;36.48
84272;SHT31;74614;50.032;19.566;2024-02-26T06:44:29;14.80;36.77
84272;SHT31;74614;50.032;19.566;2024-02-26T06:46:28;15.02;36.67
84272;SHT31;74614;50.032;19.566;2024-02-26T06:48:29;15.19;35.90
84272;SHT31;74614;50.032;19.566;2024-02-26T06:50:34;15.39;35.95
84272;SHT31;74614;50.032;19.566;2024-02-26T06:52:26;15.53;35.33
84272;SHT31;74614;50.032;19.566;2024-02-26T06:54:27;15.54;36.83
84272;SHT31;74614;50.032;19.566;2024-02-26T06:56:28;15.74;36.65
84272;SHT31;74614;50.032;19.566;2024-02-26T06:58:28;16.01;36.51
84272;SHT31;74614;50.032;19.566;2024-02-26T07:00:28;16.36;36.49
84272;SHT31;74614;50.032;19.566;2024-02-26T07:02:27;16.51;36.51
84272;SHT31;74614;50.032;19.566;2024-02-26T07:04:29;16.94;36.45
84272;SHT31;74614;50.032;19.566;2024-02-26T07:06:27;17.10;34.95
84272;SHT31;74614;50.032;19.566;2024-02-26T07:08:29;17.23;34.74
84272;SHT31;74614;50.032;19.566;2024-02-26T07:10:30;17.17;35.29
84272;SHT31;74614;50.032;19.566;2024-02-26T07:12:30;17.45;34.87
84272;SHT31;74614;50.032;19.566;2024-02-26T07:14:27;17.60;35.09
84272;SHT31;74614;50.032;19.566;2024-02-26T07:16:30;17.75;35.12
84272;SHT31;74614;50.032;19.566;2024-02-26T07:18:27;17.85;35.41
84272;SHT31;74614;50.032;19.566;2024-02-26T07:20:27;17.96;35.34
84272;SHT31;74614;50.032;19.566;2024-02-26T07:22:26;18.09;35.62
84272;SHT31;74614;50.032;19.566;2024-02-26T07:24:28;18.17;35.81
84272;SHT31;74614;50.032;19.566;2024-02-26T07:26:31;18.40;35.48
84272;SHT31;74614;50.032;19.566;2024-02-26T07:28:31;18.53;35.95
84272;SHT31;74614;50.032;19.566;2024-02-26T07:30:33;18.58;35.13
84272;SHT31;74614;50.032;19.566;2024-02-26T07:32:30;18.47;35.02
84272;SHT31;74614;50.032;19.566;2024-02-26T07:34:40;18.36;35.55
84272;SHT31;74614;50.032;19.566;2024-02-26T07:37:36;18.34;36.69
84272;SHT31;74614;50.032;19.566;2024-02-26T07:40:29;18.42;35.92
84272;SHT31;74614;50.032;19.566;2024-02-26T07:42:27;18.39;35.95
84272;SHT31;74614;50.032;19.566;2024-02-26T07:44:32;18.44;35.93
84272;SHT31;74614;50.032;19.566;2024-02-26T07:46:29;18.29;35.82
84272;SHT31;74614;50.032;19.566;2024-02-26T07:48:26;18.23;36.53
84272;SHT31;74614;50.032;19.566;2024-02-26T07:50:29;18.43;37.28
84272;SHT31;74614;50.032;19.566;2024-02-26T07:52:27;18.64;35.87
84272;SHT31;74614;50.032;19.566;2024-02-26T07:54:50;18.88;35.53
84272;SHT31;74614;50.032;19.566;2024-02-26T07:57:35;19.08;34.41
84272;SHT31;74614;50.032;19.566;2024-02-26T08:00:28;18.95;34.75
84272;SHT31;74614;50.032;19.566;2024-02-26T08:03:50;18.83;35.33
84272;SHT31;74614;50.032;19.566;2024-02-26T08:07:20;18.78;35.33
84272;SHT31;74614;50.032;19.566;2024-02-26T08:09:27;18.67;35.51
84272;SHT31;74614;50.032;19.566;2024-02-26T08:12:26;18.40;35.79
84272;SHT31;74614;50.032;19.566;2024-02-26T08:14:25;18.52;35.95
84272;SHT31;74614;50.032;19.566;2024-02-26T08:17:31;18.56;35.93
84272;SHT31;74614;50.032;19.566;2024-02-26T08:17:32;18.56;35.93
84272;SHT31;74614;50.032;19.566;2024-02-26T08:19:25;18.44;35.77
84272;SHT31;74614;50.032;19.566;2024-02-26T08:23:19;18.39;36.23
84272;SHT31;74614;50.032;19.566;2024-02-26T08:26:30;18.39;36.68
84272;SHT31;74614;50.032;19.566;2024-02-26T08:28:58;18.44;36.10
84272;SHT31;74614;50.032;19.566;2024-02-26T08:30:54;18.44;36.65
84272;SHT31;74614;50.032;19.566;2024-02-26T08:35:18;18.74;36.37
84272;SHT31;74614;50.032;19.566;2024-02-26T08:42:57;18.71;35.98
84272;SHT31;74614;50.032;19.566;2024-02-26T08:54:33;18.50;37.08
84272;SHT31;74614;50.032;19.566;2024-02-26T09:00:30;18.64;37.14
84272;SHT31;74614;50.032;19.566;2024-02-26T09:05:36;18.17;37.70
84272;SHT31;74614;50.032;19.566;2024-02-26T09:20:02;18.68;37.32
84272;SHT31;74614;50.032;19.566;2024-02-26T09:25:10;18.81;37.74
84272;SHT31;74614;50.032;19.566;2024-02-26T09:40:08;19.38;36.62
84272;SHT31;74614;50.032;19.566;2024-02-26T09:52:20;19.42;37.04
84272;SHT31;74614;50.032;19.566;2024-02-26T09:56:52;19.38;37.86
84272;SHT31;74614;50.032;19.566;2024-02-26T10:02:03;19.72;36.85
84272;SHT31;74614;50.032;19.566;2024-02-26T10:09:33;19.93;36.49
84272;SHT31;74614;50.032;19.566;2024-02-26T10:14:39;19.84;36.71
84272;SHT31;74614;50.032;19.566;2024-02-26T10:18:27;19.70;36.98
84272;SHT31;74614;50.032;19.566;2024-02-26T10:20:29;19.96;36.65
84272;SHT31;74614;50.032;19.566;2024-02-26T10:20:29;19.96;36.65
84272;SHT31;74614;50.032;19.566;2024-02-26T10:23:07;20.03;37.07
84272;SHT31;74614;50.032;19.566;2024-02-26T10:23:07;20.03;37.07
84272;SHT31;74614;50.032;19.566;2024-02-26T10:26:32;20.30;36.73
84272;SHT31;74614;50.032;19.566;2024-02-26T10:29:21;20.45;36.87
84272;SHT31;74614;50.032;19.566;2024-02-26T10:34:21;21.10;34.93
84272;SHT31;74614;50.032;19.566;2024-02-26T10:40:17;20.74;35.90
84272;SHT31;74614;50.032;19.566;2024-02-26T10:45:29;20.76;36.37
84272;SHT31;74614;50.032;19.566;2024-02-26T10:49:36;20.78;36.38
84272;SHT31;74614;50.032;19.566;2024-02-26T10:51:46;20.84;36.35
84272;SHT31;74614;50.032;19.566;2024-02-26T10:54:21;21.03;36.45
84272;SHT31;74614;50.032;19.566;2024-02-26T10:56:34;21.12;36.39
84272;SHT31;74614;50.032;19.566;2024-02-26T11:01:13;21.32;35.51
84272;SHT31;74614;50.032;19.566;2024-02-26T11:03:31;21.20;36.36
84272;SHT31;74614;50.032;19.566;2024-02-26T11:14:02;21.63;35.50
84272;SHT31;74614;50.032;19.566;2024-02-26T11:14:03;21.58;35.46
84272;SHT31;74614;50.032;19.566;2024-02-26T11:24:02;21.32;36.02
84272;SHT31;74614;50.032;19.566;2024-02-26T11:27:10;21.12;36.56
84272;SHT31;74614;50.032;19.566;2024-02-26T11:30:30;21.42;36.03
84272;SHT31;74614;50.032;19.566;2024-02-26T11:33:33;21.37;35.86
84272;SHT31;74614;50.032;19.566;2024-02-26T11:37:26;21.32;36.69
84272;SHT31;74614;50.032;19.566;2024-02-26T11:40:22;21.58;36.59
84272;SHT31;74614;50.032;19.566;2024-02-26T11:44:08;21.74;35.69
84272;SHT31;74614;50.032;19.566;2024-02-26T11:46:28;21.77;35.57
84272;SHT31;74614;50.032;19.566;2024-02-26T11:50:57;21.80;36.11
84272;SHT31;74614;50.032;19.566;2024-02-26T11:54:49;21.81;35.78
84272;SHT31;74614;50.032;19.566;2024-02-26T11:54:50;21.80;35.87
84272;SHT31;74614;50.032;19.566;2024-02-26T11:57:27;21.90;35.98
84272;SHT31;74614;50.032;19.566;2024-02-26T12:02:41;22.02;36.05
84272;SHT31;74614;50.032;19.566;2024-02-26T12:07:14;21.95;35.73
84272;SHT31;74614;50.032;19.566;2024-02-26T12:07:16;0.00;0.00
84272;SHT31;74614;50.032;19.566;2024-02-26T12:11:50;21.87;36.64
84272;SHT31;74614;50.032;19.566;2024-02-26T12:14:40;21.95;36.12
84272;SHT31;74614;50.032;19.566;2024-02-26T12:16:42;21.90;36.10
84272;SHT31;74614;50.032;19.566;2024-02-26T12:20:10;22.05;36.25
84272;SHT31;74614;50.032;19.566;2024-02-26T12:22:19;21.97;35.76
84272;SHT31;74614;50.032;19.566;2024-02-26T12:25:00;21.95;35.94
84272;SHT31;74614;50.032;19.566;2024-02-26T12:29:12;21.98;35.78
84272;SHT31;74614;50.032;19.566;2024-02-26T12:31:13;21.99;36.06
84272;SHT31;74614;50.032;19.566;2024-02-26T12:33:26;22.12;35.89
84272;SHT31;74614;50.032;19.566;2024-02-26T12:35:27;22.18;36.00
84272;SHT31;74614;50.032;19.566;2024-02-26T12:42:14;22.57;35.24
84272;SHT31;74614;50.032;19.566;2024-02-26T12:44:15;22.69;35.02
84272;SHT31;74614;50.032;19.566;2024-02-26T12:47:56;22.80;34.93
84272;SHT31;74614;50.032;19.566;2024-02-26T12:48:00;22.80;34.93
84272;SHT31;74614;50.032;19.566;2024-02-26T12:49:59;0.00;0.00
84272;SHT31;74614;50.032;19.566;2024-02-26T12:50:05;22.90;34.84
84272;SHT31;74614;50.032;19.566;2024-02-26T12:52:24;23.04;33.96
84272;SHT31;74614;50.032;19.566;2024-02-26T12:55:21;23.10;34.22
84272;SHT31;74614;50.032;19.566;2024-02-26T12:58:33;23.06;34.21
84272;SHT31;74614;50.032;19.566;2024-02-26T13:00:44;23.23;34.42
84272;SHT31;74614;50.032;19.566;2024-02-26T13:03:23;23.34;34.02
84272;SHT31;74614;50.032;19.566;2024-02-26T13:06:05;23.46;33.56
84272;SHT31;74614;50.032;19.566;2024-02-26T13:11:44;23.57;33.86
84272;SHT31;74614;50.032;19.566;2024-02-26T13:14:30;23.82;33.54
84272;SHT31;74614;50.032;19.566;2024-02-26T13:17:37;23.81;33.08
84272;SHT31;74614;50.032;19.566;2024-02-26T13:20:34;23.85;32.98
84272;SHT31;74614;50.032;19.566;2024-02-26T13:22:26;23.90;33.17
84272;SHT31;74614;50.032;19.566;2024-02-26T13:24:42;23.95;33.25
84272;SHT31;74614;50.032;19.566;2024-02-26T13:27:49;23.98;34.01
84272;SHT31;74614;50.032;19.566;2024-02-26T13:30:18;24.08;34.72
84272;SHT31;74614;50.032;19.566;2024-02-26T13:33:36;24.18;32.99
84272;SHT31;74614;50.032;19.566;2024-02-26T13:36:34;24.22;32.73
84272;SHT31;74614;50.032;19.566;2024-02-26T13:38:28;24.29;32.39
84272;SHT31;74614;50.032;19.566;2024-02-26T13:40:29;24.27;32.52
84272;SHT31;74614;50.032;19.566;2024-02-26T13:49:09;23.85;32.88
84272;SHT31;74614;50.032;19.566;2024-02-26T13:51:29;23.88;33.02
84272;SHT31;74614;50.032;19.566;2024-02-26T13:55:02;23.79;33.43
84272;SHT31;74614;50.032;19.566;2024-02-26T13:57:28;23.99;33.20
84272;SHT31;74614;50.032;19.566;2024-02-26T13:59:34;24.05;33.23
84272;SHT31;74614;50.032;19.566;2024-02-26T14:01:27;24.09;33.50
84272;SHT31;74614;50.032;19.566;2024-02-26T14:03:36;24.12;32.79
84272;SHT31;74614;50.032;19.566;2024-02-26T14:05:29;24.15;32.88
84272;SHT31;74614;50.032;19.566;2024-02-26T14:07:40;24.13;32.77
84272;SHT31;74614;50.032;19.566;2024-02-26T14:12:33;24.23;32.55
84272;SHT31;74614;50.032;19.566;2024-02-26T14:14:30;24.08;32.57
84272;SHT31;74614;50.032;19.566;2024-02-26T14:21:36;24.06;33.03
84272;SHT31;74614;50.032;19.566;2024-02-26T14:21:41;24.06;33.03
84272;SHT31;74614;50.032;19.566;2024-02-26T14:25:50;24.33;31.74
84272;SHT31;74614;50.032;19.566;2024-02-26T14:31:38;24.83;31.51
84272;SHT31;74614;50.032;19.566;2024-02-26T14:35:36;24.81;32.47
84272;SHT31;74614;50.032;19.566;2024-02-26T14:38:26;24.95;32.08
84272;SHT31;74614;50.032;19.566;2024-02-26T14:40:42;24.91;32.47
84272;SHT31;74614;50.032;19.566;2024-02-26T14:43:32;24.92;32.00
84272;SHT31;74614;50.032;19.566;2024-02-26T14:46:44;24.98;32.47
84272;SHT31;74614;50.032;19.566;2024-02-26T14:48:48;24.84;32.65
84272;SHT31;74614;50.032;19.566;2024-02-26T14:50:54;24.83;31.34
84272;SHT31;74614;50.032;19.566;2024-02-26T14:53:30;24.88;31.64
84272;SHT31;74614;50.032;19.566;2024-02-26T14:53:31;24.88;31.64
84272;SHT31;74614;50.032;19.566;2024-02-26T14:55:36;24.81;32.51
84272;SHT31;74614;50.032;19.566;2024-02-26T14:58:30;24.84;32.31
84272;SHT31;74614;50.032;19.566;2024-02-26T15:01:40;24.70;31.76
84272;SHT31;74614;50.032;19.566;2024-02-26T15:04:37;24.74;32.10
84272;SHT31;74614;50.032;19.566;2024-02-26T15:08:01;24.77;32.65
84272;SHT31;74614;50.032;19.566;2024-02-26T15:13:07;24.63;33.15
84272;SHT31;74614;50.032;19.566;2024-02-26T15:15:08;24.67;34.14
84272;SHT31;74614;50.032;19.566;2024-02-26T15:17:54;24.56;33.62
84272;SHT31;74614;50.032;19.566;2024-02-26T15:21:22;24.47;32.75
84272;SHT31;74614;50.032;19.566;2024-02-26T15:23:27;24.47;33.69
84272;SHT31;74614;50.032;19.566;2024-02-26T15:26:13;24.44;32.89
84272;SHT31;74614;50.032;19.566;2024-02-26T15:28:37;24.37;33.92
84272;SHT31;74614;50.032;19.566;2024-02-26T16:25:59;22.44;35.09
84272;SHT31;74614;50.032;19.566;2024-02-26T18:51:41;20.58;38.29
84272;SHT31;74614;50.032;19.566;2024-02-26T18:57:46;20.23;39.16
84272;SHT31;74614;50.032;19.566;2024-02-26T19:00:32;20.06;39.57
84272;SHT31;74614;50.032;19.566;2024-02-26T19:02:35;19.98;39.37
84272;SHT31;74614;50.032;19.566;2024-02-26T19:04:29;20.13;39.55
84272;SHT31;74614;50.032;19.566;2024-02-26T19:06:35;20.13;39.32
84272;SHT31;74614;50.032;19.566;2024-02-26T19:09:42;20.31;39.49
84272;SHT31;74614;50.032;19.566;2024-02-26T19:12:32;20.31;39.27
84272;SHT31;74614;50.032;19.566;2024-02-26T19:14:30;20.35;38.81